Time;durP1;ratioP1;P1;durP2;ratioP2;P2;SDS_P1;SDS_P2;PMS_P1;PMS_P2;Temp;Humidity;BMP_temperature;BMP_pressure;BME280_temperature;BME280_humidity;BME280_pressure;Samples;Min_cycle;Max_cycle;Signal;HPM_P1;HPM_P2
2022/02/20 00:02:16;;;;;;;0.17;0.17;;;8.40;99.90;;;;;;5039566;28;20041;-80
2022/02/20 00:04:45;;;;;;;0.20;0.20;;;8.50;99.90;;;;;;5044256;28;20038;-80
2022/02/20 00:07:13;;;;;;;0.68;0.20;;;8.50;99.90;;;;;;5043270;28;20476;-80
2022/02/20 00:09:41;;;;;;;0.88;0.40;;;8.50;99.90;;;;;;5043945;28;20116;-81
2022/02/20 00:12:10;;;;;;;0.20;0.10;;;8.50;99.90;;;;;;5040771;28;20036;-80
2022/02/20 00:15:07;;;;;;;0.40;0.30;;;8.60;99.90;;;;;;5038437;28;20074;-80
2022/02/20 00:17:35;;;;;;;0.10;0.10;;;8.60;99.90;;;;;;5042232;28;20526;-81
2022/02/20 00:20:07;;;;;;;0.52;0.22;;;8.50;99.90;;;;;;5037115;28;20032;-80
2022/02/20 00:22:54;;;;;;;0.13;0.13;;;8.50;99.90;;;;;;5039114;28;20018;-82
2022/02/20 00:25:30;;;;;;;2.15;0.50;;;8.50;99.90;;;;;;5036553;28;20603;-83
2022/02/20 00:27:59;;;;;;;0.30;0.30;;;8.50;99.90;;;;;;5041322;28;20021;-82
2022/02/20 00:30:28;;;;;;;0.47;0.30;;;8.50;99.90;;;;;;5043220;28;20055;-82
2022/02/20 00:33:00;;;;;;;0.85;0.30;;;8.50;99.90;;;;;;5040794;28;20045;-82
2022/02/20 00:35:35;;;;;;;1.85;0.30;;;8.40;99.90;;;;;;5044241;28;20403;-82
2022/02/20 00:38:03;;;;;;;1.30;0.32;;;8.40;99.90;;;;;;5042327;28;20558;-83
2022/02/20 00:40:29;;;;;;;0.98;0.20;;;8.40;99.90;;;;;;5039592;28;20024;-83
2022/02/20 00:42:56;;;;;;;0.17;0.17;;;8.30;99.90;;;;;;5041456;28;20123;-83
2022/02/20 00:45:31;;;;;;;0.20;0.20;;;8.30;99.90;;;;;;5038950;28;20063;-83
2022/02/20 00:47:57;;;;;;;0.10;0.10;;;8.30;99.90;;;;;;5040691;28;20029;-83
2022/02/20 00:51:12;;;;;;;0.30;0.28;;;8.20;99.90;;;;;;5034600;28;20029;-82
2022/02/20 00:54:04;;;;;;;1.00;0.30;;;8.10;99.90;;;;;;5012079;28;20044;-82
2022/02/20 00:56:39;;;;;;;0.47;0.20;;;8.10;99.90;;;;;;5041891;28;20028;-83
2022/02/20 00:59:55;;;;;;;1.42;0.20;;;8.20;99.90;;;;;;5042285;28;20032;-82
2022/02/20 01:02:13;;;;;;;0.10;0.10;;;8.10;99.90;;;;;;5033817;28;20519;-81
2022/02/20 01:04:59;;;;;;;0.30;0.10;;;8.10;99.90;;;;;;5044713;28;20037;-81
2022/02/20 01:07:49;;;;;;;0.40;0.10;;;8.20;99.90;;;;;;5037284;28;20021;-82
2022/02/20 01:10:28;;;;;;;0.30;0.20;;;8.10;99.90;;;;;;5042257;28;20031;-80
2022/02/20 01:12:55;;;;;;;0.20;0.10;;;8.20;99.90;;;;;;5042008;28;20075;-81
2022/02/20 01:19:11;;;;;;;0.17;0.03;;;8.10;99.90;;;;;;5042056;28;20072;-81
2022/02/20 01:29:32;;;;;;;0.17;0.10;;;8.20;99.90;;;;;;5040456;28;20122;-82
2022/02/20 01:46:24;;;;;;;;;;;8.30;99.90;;;;;;4950861;28;20155;-80
2022/02/20 01:57:18;;;;;;;;;;;;;;;;;;;;;
2022/02/20 02:00:03;;;;;;;1.75;0.13;;;8.30;99.90;;;;;;4925722;29;20039;-81
2022/02/20 02:20:14;;;;;;;;;;;;;;;;;;;;;
2022/02/20 02:26:39;;;;;;;0.73;0.20;;;8.30;99.90;;;;;;4947918;28;20596;-81
2022/02/20 02:43:51;;;;;;;0.10;0.10;;;8.40;99.90;;;;;;4848436;29;20588;-80
2022/02/20 03:04:08;;;;;;;0.00;0.00;;;8.40;99.90;;;;;;4740318;30;20064;-84
2022/02/20 03:07:49;;;;;;;;;;;;;;;;;;;;;
2022/02/20 03:35:16;;;;;;;0.10;0.10;;;8.50;99.90;;;;;;4813638;29;20081;-84
2022/02/20 03:45:28;;;;;;;0.10;0.10;;;8.60;99.90;;;;;;4790504;29;21514;-85
2022/02/20 03:52:31;;;;;;;;;;;;;;;;;;;;;
2022/02/20 05:10:51;;;;;;;2.53;0.30;;;8.70;99.90;;;;;;4866216;29;20450;-84
2022/02/20 05:13:17;;;;;;;0.77;0.20;;;8.70;99.90;;;;;;4848141;29;20052;-84
2022/02/20 05:20:00;;;;;;;0.52;0.30;;;8.70;99.90;;;;;;4887301;29;20040;-85
2022/02/20 05:40:54;;;;;;;0.40;0.25;;;8.30;99.90;;;;;;4885793;29;20088;-84
2022/02/20 05:50:30;;;;;;;0.10;0.10;;;8.40;99.90;;;;;;4802328;29;20183;-84
2022/02/20 05:54:00;;;;;;;;;;;;;;;;;;;;;
2022/02/20 06:20:20;;;;;;;0.55;0.40;;;8.40;99.90;;;;;;4833108;29;20739;-84
2022/02/20 06:23:07;;;;;;;0.85;0.40;;;8.40;99.90;;;;;;4851839;29;20110;-83
2022/02/20 06:26:16;;;;;;;0.28;0.20;;;8.50;99.90;;;;;;4909997;28;20174;-84
2022/02/20 06:29:35;;;;;;;;;;;;;;;;;;;;;
2022/02/20 06:35:48;;;;;;;0.47;0.30;;;8.70;99.90;;;;;;4884658;29;20245;-85
2022/02/20 06:38:57;;;;;;;0.50;0.50;;;8.80;99.90;;;;;;4905163;29;20127;-84
2022/02/20 06:41:33;;;;;;;0.57;0.45;;;8.90;99.90;;;;;;4899706;29;20051;-84
2022/02/20 06:44:02;;;;;;;0.40;0.40;;;8.90;99.90;;;;;;4897927;29;20028;-84
2022/02/20 06:47:07;;;;;;;1.27;0.45;;;9.00;99.90;;;;;;4916953;29;20452;-84
2022/02/20 06:50:15;;;;;;;1.10;0.35;;;9.00;99.90;;;;;;4895865;29;20127;-84
2022/02/20 06:52:54;;;;;;;0.40;0.40;;;9.10;99.90;;;;;;4922711;29;20056;-84
2022/02/20 06:55:53;;;;;;;0.45;0.40;;;9.10;99.90;;;;;;4979613;28;20065;-84
2022/02/20 07:02:28;;;;;;;0.57;0.45;;;9.10;99.90;;;;;;5024516;28;20273;-86
2022/02/20 07:05:22;;;;;;;;;;;;;;;;;;;;;
2022/02/20 07:07:49;;;;;;;0.55;0.40;;;9.20;99.90;;;;;;5019208;28;20507;-84
2022/02/20 07:10:18;;;;;;;0.77;0.35;;;9.30;99.90;;;;;;5012582;28;20026;-85
2022/02/20 07:13:07;;;;;;;0.32;0.25;;;9.30;99.90;;;;;;5007307;28;20042;-85
2022/02/20 07:15:51;;;;;;;;;;;;;;;;;;;;;
2022/02/20 07:18:21;;;;;;;0.57;0.30;;;9.50;99.90;;;;;;5023634;28;20018;-85
2022/02/20 07:20:50;;;;;;;0.35;0.22;;;9.50;99.90;;;;;;5023273;28;20137;-84
2022/02/20 07:23:20;;;;;;;0.63;0.50;;;9.50;99.90;;;;;;5023367;28;20060;-84
2022/02/20 07:25:49;;;;;;;0.38;0.28;;;9.50;99.90;;;;;;5025640;28;20488;-85
2022/02/20 07:28:27;;;;;;;0.98;0.60;;;9.50;99.90;;;;;;5005331;28;20664;-85
2022/02/20 07:31:09;;;;;;;0.65;0.55;;;9.60;99.90;;;;;;5021622;28;20033;-84
2022/02/20 07:33:47;;;;;;;0.50;0.50;;;9.50;99.90;;;;;;5021326;28;20092;-84
2022/02/20 07:36:24;;;;;;;1.00;0.70;;;9.50;99.90;;;;;;5007074;28;20033;-85
2022/02/20 07:39:03;;;;;;;2.83;0.70;;;9.50;99.90;;;;;;5003982;28;20160;-84
2022/02/20 07:41:32;;;;;;;0.60;0.60;;;9.40;99.90;;;;;;5026196;28;20021;-84
2022/02/20 07:44:01;;;;;;;1.02;0.63;;;9.40;99.90;;;;;;5022398;28;20045;-84
2022/02/20 07:46:38;;;;;;;1.20;0.60;;;9.40;99.90;;;;;;5002473;28;20492;-84
2022/02/20 07:49:34;;;;;;;0.50;0.50;;;9.40;99.90;;;;;;5023674;28;20439;-84
2022/02/20 07:52:21;;;;;;;1.55;0.50;;;9.40;99.90;;;;;;5016922;28;20169;-85
2022/02/20 07:54:58;;;;;;;1.40;0.70;;;9.50;99.90;;;;;;5015471;28;20046;-84
2022/02/20 07:57:24;;;;;;;1.10;0.50;;;9.50;99.90;;;;;;5001309;28;20036;-84
2022/02/20 08:00:30;;;;;;;;;;;;;;;;;;;;;
2022/02/20 08:05:55;;;;;;;0.55;0.55;;;10.00;99.90;;;;;;5020521;28;20124;-84
2022/02/20 08:08:21;;;;;;;0.98;0.80;;;10.20;99.90;;;;;;5025988;28;20049;-83
2022/02/20 08:10:48;;;;;;;0.60;0.60;;;10.30;99.90;;;;;;5021913;28;20429;-84
2022/02/20 08:13:35;;;;;;;0.88;0.70;;;10.30;99.90;;;;;;5022720;28;20030;-86
2022/02/20 08:16:05;;;;;;;1.15;0.63;;;10.30;99.90;;;;;;5006973;28;20124;-85
2022/02/20 08:18:54;;;;;;;0.82;0.82;;;10.40;99.90;;;;;;5023106;28;20083;-84
2022/02/20 08:21:30;;;;;;;2.45;0.50;;;10.40;99.90;;;;;;5023460;28;20049;-84
2022/02/20 08:23:56;;;;;;;0.50;0.50;;;10.50;99.90;;;;;;5012653;28;20516;-85
2022/02/20 08:26:22;;;;;;;1.40;0.70;;;10.60;99.90;;;;;;5024883;28;20578;-85
2022/02/20 08:28:51;;;;;;;1.50;0.90;;;10.60;99.90;;;;;;5022702;28;20025;-86
2022/02/20 08:31:29;;;;;;;1.80;0.70;;;10.60;99.90;;;;;;5022085;28;20036;-86
2022/02/20 08:33:58;;;;;;;1.02;0.77;;;10.60;99.90;;;;;;5023031;28;20069;-86
2022/02/20 08:36:29;;;;;;;0.75;0.75;;;10.70;99.90;;;;;;5001849;28;20025;-85
2022/02/20 08:38:58;;;;;;;0.80;0.65;;;10.60;99.90;;;;;;5021221;28;20064;-86
2022/02/20 08:41:23;;;;;;;1.23;0.70;;;10.70;99.90;;;;;;5005317;28;20025;-84
2022/02/20 08:44:02;;;;;;;0.85;0.60;;;10.60;99.90;;;;;;5020507;28;20151;-85
2022/02/20 08:46:28;;;;;;;1.02;0.73;;;10.60;99.90;;;;;;5002928;28;20063;-85
2022/02/20 08:48:54;;;;;;;0.57;0.57;;;10.60;99.90;;;;;;5020170;28;20026;-85
2022/02/20 08:51:20;;;;;;;1.02;0.80;;;10.60;99.90;;;;;;5037229;28;20061;-84
2022/02/20 08:53:47;;;;;;;0.70;0.70;;;10.60;99.90;;;;;;5040714;28;20068;-85
2022/02/20 08:56:16;;;;;;;2.42;0.75;;;10.60;99.90;;;;;;5040719;28;20025;-81
2022/02/20 08:58:44;;;;;;;0.70;0.70;;;10.60;99.90;;;;;;5038974;28;20048;-84
2022/02/20 09:01:14;;;;;;;0.70;0.60;;;10.70;99.90;;;;;;5039362;28;20154;-86
2022/02/20 09:03:41;;;;;;;0.80;0.80;;;10.70;99.90;;;;;;5023693;28;20029;-81
2022/02/20 09:06:10;;;;;;;0.98;0.80;;;10.80;99.90;;;;;;5041109;28;20024;-88
2022/02/20 09:08:39;;;;;;;1.85;1.20;;;10.90;99.90;;;;;;5024369;28;20051;-87
2022/02/20 09:11:19;;;;;;;4.07;3.67;;;10.90;99.90;;;;;;5023985;28;20022;-87
2022/02/20 09:13:54;;;;;;;1.33;0.93;;;11.00;99.90;;;;;;5034060;28;20037;-88
2022/02/20 09:16:26;;;;;;;1.08;0.98;;;11.10;99.90;;;;;;5042427;28;20029;-87
2022/02/20 09:18:52;;;;;;;1.40;0.82;;;11.20;99.90;;;;;;5041644;28;20025;-88
2022/02/20 09:21:18;;;;;;;1.13;0.90;;;11.30;99.90;;;;;;5045254;28;20474;-87
2022/02/20 09:23:43;;;;;;;1.98;1.35;;;11.40;99.90;;;;;;5043538;28;20546;-87
2022/02/20 09:26:12;;;;;;;1.27;1.17;;;11.60;99.90;;;;;;5021455;28;20060;-87
2022/02/20 09:28:38;;;;;;;1.77;1.30;;;11.80;99.90;;;;;;5033974;28;20032;-87
2022/02/20 09:31:03;;;;;;;2.10;1.65;;;11.90;99.90;;;;;;5019217;28;20021;-84
2022/02/20 09:33:29;;;;;;;1.88;0.82;;;12.10;99.90;;;;;;5024815;28;20039;-84
2022/02/20 09:35:55;;;;;;;1.48;1.02;;;12.30;99.90;;;;;;5025161;28;20037;-85
2022/02/20 09:38:21;;;;;;;4.80;3.55;;;12.50;99.90;;;;;;5042008;28;20558;-85
2022/02/20 09:40:47;;;;;;;3.30;2.60;;;12.70;99.90;;;;;;5042061;28;20037;-83
2022/02/20 09:43:14;;;;;;;4.25;2.33;;;13.00;99.90;;;;;;5041538;28;20021;-84
2022/02/20 09:45:48;;;;;;;2.85;1.80;;;13.10;99.90;;;;;;5043993;28;20079;-84
2022/02/20 09:48:15;;;;;;;3.17;2.83;;;13.30;99.90;;;;;;5040373;28;20032;-84
2022/02/20 09:50:45;;;;;;;1.20;1.00;;;13.40;99.90;;;;;;5021250;28;20045;-87
2022/02/20 09:53:12;;;;;;;4.38;2.70;;;13.40;99.90;;;;;;5023352;28;20048;-86
2022/02/20 09:55:58;;;;;;;0.95;0.95;;;13.40;99.90;;;;;;5023827;28;20037;-86
2022/02/20 09:58:26;;;;;;;4.13;2.72;;;13.50;99.90;;;;;;5038469;28;20549;-87
2022/02/20 10:01:12;;;;;;;2.22;1.73;;;13.50;99.90;;;;;;5025991;28;20112;-85
2022/02/20 10:03:56;;;;;;;2.08;1.30;;;13.50;99.90;;;;;;5044060;28;20069;-88
2022/02/20 10:06:25;;;;;;;2.05;1.63;;;13.50;99.90;;;;;;5045144;28;20025;-88
2022/02/20 10:08:55;;;;;;;2.88;2.15;;;13.60;99.90;;;;;;5030031;28;20367;-89
2022/02/20 10:11:45;;;;;;;1.40;1.30;;;13.80;99.90;;;;;;5025045;28;20033;-90
2022/02/20 10:14:21;;;;;;;1.60;1.23;;;14.00;99.90;;;;;;5037185;28;20030;-89
2022/02/20 10:16:55;;;;;;;1.95;1.40;;;14.20;99.90;;;;;;5029606;28;20485;-90
2022/02/20 10:19:53;;;;;;;2.55;1.48;;;14.30;99.90;;;;;;5030949;28;20108;-90
2022/02/20 10:22:39;;;;;;;1.73;1.15;;;14.50;99.90;;;;;;5036465;28;20095;-90
2022/02/20 10:25:28;;;;;;;4.03;3.42;;;14.80;99.90;;;;;;5023704;28;20053;-90
2022/02/20 10:27:55;;;;;;;4.53;3.55;;;15.00;99.90;;;;;;5046686;28;20029;-90
2022/02/20 10:30:38;;;;;;;4.28;3.05;;;15.20;99.90;;;;;;5041310;28;20026;-90
2022/02/20 10:33:18;;;;;;;12.77;9.98;;;15.30;99.90;;;;;;5028654;28;20041;-88
2022/02/20 10:35:52;;;;;;;18.30;13.23;;;15.40;99.90;;;;;;5027043;28;20033;-90
2022/02/20 10:38:23;;;;;;;10.52;5.57;;;15.50;99.90;;;;;;5027914;28;20025;-89
2022/02/20 10:40:55;;;;;;;12.20;6.97;;;15.50;99.90;;;;;;5029293;28;20061;-89
2022/02/20 10:43:37;;;;;;;26.50;18.88;;;15.60;99.90;;;;;;5033212;28;20029;-89
2022/02/20 10:46:23;;;;;;;15.13;11.48;;;15.80;99.90;;;;;;5045109;28;20052;-90
2022/02/20 10:48:57;;;;;;;5.95;3.85;;;15.90;99.90;;;;;;5028412;28;20434;-89
2022/02/20 10:51:23;;;;;;;6.32;2.50;;;16.00;99.90;;;;;;5032521;28;20225;-90
2022/02/20 10:53:52;;;;;;;5.40;2.88;;;16.10;99.90;;;;;;5026042;28;20135;-89
2022/02/20 10:56:18;;;;;;;7.55;3.63;;;16.20;99.90;;;;;;5047909;28;20053;-90
2022/02/20 10:58:55;;;;;;;6.75;3.60;;;16.40;99.90;;;;;;5030554;28;20036;-89
2022/02/20 11:01:25;;;;;;;4.65;3.28;;;16.30;99.90;;;;;;5053799;28;20021;-89
2022/02/20 11:04:01;;;;;;;11.15;5.45;;;15.60;99.90;;;;;;5019696;28;20029;-89
2022/02/20 11:06:31;;;;;;;5.00;3.35;;;14.90;99.90;;;;;;5031116;28;20033;-90
2022/02/20 11:09:02;;;;;;;7.90;3.72;;;14.50;99.90;;;;;;5029398;28;20120;-91
2022/02/20 11:11:38;;;;;;;5.68;4.05;;;14.30;99.90;;;;;;5033754;28;20558;-91
2022/02/20 11:14:05;;;;;;;5.20;3.80;;;14.10;99.90;;;;;;5028831;28;20048;-89
2022/02/20 11:16:38;;;;;;;6.78;4.25;;;14.00;99.90;;;;;;5026310;28;20052;-90
2022/02/20 11:19:23;;;;;;;5.22;4.18;;;14.20;99.90;;;;;;5029451;28;20025;-90
2022/02/20 11:22:09;;;;;;;5.05;4.28;;;14.30;99.90;;;;;;5035120;28;20065;-90
2022/02/20 11:24:45;;;;;;;4.68;3.67;;;14.30;99.90;;;;;;5024519;28;20037;-90
2022/02/20 11:27:24;;;;;;;9.65;5.60;;;14.40;99.90;;;;;;5029676;28;20067;-90
2022/02/20 11:29:56;;;;;;;8.90;6.00;;;14.40;99.90;;;;;;5036232;28;20483;-89
2022/02/20 11:32:28;;;;;;;11.40;7.85;;;14.50;99.90;;;;;;5018485;28;20033;-88
2022/02/20 11:35:02;;;;;;;;;;;14.70;99.90;;;;;;5035337;28;20209;-88
2022/02/20 11:38:12;;;;;;;138.00;88.70;;;14.80;99.90;;;;;;5022755;28;19909;-89
2022/02/20 11:41:02;;;;;;;10.57;5.63;;;14.90;99.90;;;;;;5022810;28;20025;-89
2022/02/20 11:44:18;;;;;;;16.33;10.68;;;15.10;99.90;;;;;;5030266;28;20026;-90
2022/02/20 11:46:50;;;;;;;27.02;14.95;;;15.00;99.90;;;;;;5043689;28;20500;-90
2022/02/20 11:49:26;;;;;;;5.43;3.88;;;14.70;99.90;;;;;;5028775;28;20032;-91
2022/02/20 11:52:04;;;;;;;11.18;4.07;;;14.70;99.90;;;;;;5033473;28;20071;-90
2022/02/20 11:54:44;;;;;;;7.45;3.88;;;14.20;99.90;;;;;;5032682;28;20063;-90
2022/02/20 11:57:18;;;;;;;11.18;4.20;;;13.90;99.90;;;;;;5023464;28;20028;-89
2022/02/20 12:00:13;;;;;;;6.75;4.00;;;13.50;99.90;;;;;;5024845;28;20111;-90
2022/02/20 12:03:40;;;;;;;8.00;4.15;;;13.00;99.90;;;;;;5045187;28;20480;-88
2022/02/20 12:06:35;;;;;;;8.63;4.22;;;12.60;99.90;;;;;;4924720;29;20538;-89
2022/02/20 12:09:25;;;;;;;10.68;5.20;;;12.30;99.90;;;;;;4942616;29;20036;-88
2022/02/20 12:12:36;;;;;;;;;;;;;;;;;;;;;
2022/02/20 12:15:43;;;;;;;7.20;4.95;;;11.80;99.90;;;;;;5037146;28;20400;-88
2022/02/20 12:18:12;;;;;;;7.28;4.82;;;11.70;99.90;;;;;;5022261;28;20038;-89
2022/02/20 12:21:08;;;;;;;8.90;5.00;;;11.70;99.90;;;;;;5039042;28;20033;-87
2022/02/20 12:23:55;;;;;;;12.02;5.10;;;11.90;99.90;;;;;;5028564;28;20025;-88
2022/02/20 12:27:09;;;;;;;7.30;4.90;;;11.90;99.90;;;;;;5030489;28;20127;-88
2022/02/20 12:30:20;;;;;;;9.55;4.90;;;12.00;99.90;;;;;;5028414;28;20029;-88
2022/02/20 12:32:49;;;;;;;6.72;4.22;;;12.30;99.90;;;;;;5031894;28;20040;-89
2022/02/20 12:35:21;;;;;;;5.20;3.72;;;14.70;99.90;;;;;;5038736;28;20036;-90
2022/02/20 12:37:53;;;;;;;6.60;3.90;;;16.00;99.90;;;;;;5025269;28;20029;-89
2022/02/20 12:40:27;;;;;;;8.20;4.57;;;16.60;99.90;;;;;;5024561;28;20090;-88
2022/02/20 12:42:57;;;;;;;5.45;4.47;;;17.20;99.90;;;;;;5025644;28;20082;-88
2022/02/20 12:45:38;;;;;;;7.30;4.95;;;17.50;99.90;;;;;;5038790;28;20044;-88
2022/02/20 12:48:09;;;;;;;6.78;4.22;;;17.90;99.90;;;;;;5042011;28;20079;-88
2022/02/20 12:50:58;;;;;;;7.00;4.75;;;19.30;99.90;;;;;;5025325;28;20507;-88
2022/02/20 12:53:25;;;;;;;11.50;5.18;;;20.20;99.90;;;;;;5031883;28;20068;-87
2022/02/20 12:56:03;;;;;;;6.28;3.80;;;19.30;99.90;;;;;;5023455;28;20116;-88
2022/02/20 12:58:29;;;;;;;5.70;4.05;;;19.90;99.90;;;;;;5023131;28;20069;-87
2022/02/20 13:00:56;;;;;;;5.60;4.97;;;20.20;99.90;;;;;;5025231;28;20053;-90
2022/02/20 13:03:24;;;;;;;6.82;4.60;;;19.60;99.90;;;;;;5024412;28;20063;-90
2022/02/20 13:05:57;;;;;;;8.73;5.20;;;19.20;99.90;;;;;;5025209;28;20419;-90
2022/02/20 13:08:29;;;;;;;7.28;4.60;;;19.80;99.90;;;;;;5030081;28;20028;-89
2022/02/20 13:11:00;;;;;;;5.07;4.53;;;20.10;99.90;;;;;;5024986;28;20051;-91
2022/02/20 13:13:30;;;;;;;5.95;4.40;;;20.40;99.90;;;;;;5020827;28;20063;-91
2022/02/20 13:15:59;;;;;;;5.95;4.32;;;20.90;99.90;;;;;;5034994;28;20021;-90
2022/02/20 13:18:30;;;;;;;6.65;4.20;;;20.90;99.90;;;;;;5036187;28;20057;-91
2022/02/20 13:20:59;;;;;;;8.57;4.85;;;20.60;99.90;;;;;;5028375;28;20028;-91
2022/02/20 13:24:01;;;;;;;7.30;4.80;;;19.50;99.90;;;;;;5017889;28;20061;-91
2022/02/20 13:26:28;;;;;;;7.75;4.65;;;19.80;99.90;;;;;;5034499;28;20419;-90
2022/02/20 13:29:01;;;;;;;8.25;5.18;;;20.80;99.90;;;;;;5027816;28;20025;-90
2022/02/20 13:31:38;;;;;;;10.20;6.18;;;21.60;99.90;;;;;;5024861;28;20628;-91
2022/02/20 13:34:08;;;;;;;7.82;6.47;;;22.20;99.90;;;;;;5043561;28;20033;-91
2022/02/20 13:36:39;;;;;;;8.25;5.80;;;21.40;99.90;;;;;;5028641;28;20022;-92
2022/02/20 13:39:10;;;;;;;8.97;6.50;;;21.40;99.90;;;;;;5016658;28;20127;-91
2022/02/20 13:41:45;;;;;;;7.88;6.53;;;21.10;99.90;;;;;;5031704;28;20044;-91
2022/02/20 13:44:35;;;;;;;7.75;6.20;;;21.30;99.90;;;;;;5027398;28;20067;-91
2022/02/20 13:50:24;;;;;;;10.00;7.53;;;20.30;99.90;;;;;;5033308;28;20459;-93
2022/02/20 13:52:57;;;;;;;10.82;7.47;;;18.00;99.90;;;;;;5029517;28;20017;-92
2022/02/20 13:55:29;;;;;;;9.10;7.18;;;15.80;99.90;;;;;;4994215;28;20038;-85
2022/02/20 13:58:14;;;;;;;9.07;6.45;;;15.90;99.90;;;;;;5012094;28;20048;-84
2022/02/20 14:00:57;;;;;;;8.77;6.53;;;18.00;99.90;;;;;;5024298;28;20025;-87
2022/02/20 14:03:26;;;;;;;10.30;7.05;;;19.70;99.90;;;;;;5023882;28;20033;-88
2022/02/20 14:05:54;;;;;;;11.32;6.43;;;19.50;99.90;;;;;;5022859;28;20029;-86
2022/02/20 14:08:20;;;;;;;10.57;6.82;;;19.20;99.90;;;;;;5026329;28;20018;-91
2022/02/20 14:11:04;;;;;;;8.25;6.63;;;19.90;99.90;;;;;;5007119;28;20030;-86
2022/02/20 14:13:35;;;;;;;6.43;5.57;;;20.80;99.90;;;;;;5022237;28;20033;-88
2022/02/20 14:16:02;;;;;;;9.38;6.25;;;21.00;99.90;;;;;;5012375;28;20445;-85
2022/02/20 14:18:38;;;;;;;8.95;6.25;;;21.20;99.90;;;;;;5022714;28;20500;-84
2022/02/20 14:21:16;;;;;;;12.27;7.13;;;21.00;99.90;;;;;;5024131;28;20116;-90
2022/02/20 14:23:45;;;;;;;8.93;6.82;;;19.80;99.90;;;;;;5023056;28;20052;-85
2022/02/20 14:26:12;;;;;;;11.65;6.80;;;18.10;99.90;;;;;;5023083;28;20544;-86
2022/02/20 14:29:07;;;;;;;9.13;5.28;;;18.30;99.90;;;;;;5022261;28;20040;-86
2022/02/20 14:31:49;;;;;;;8.50;6.00;;;19.00;99.90;;;;;;5018930;28;20022;-89
2022/02/20 14:34:19;;;;;;;11.23;6.10;;;18.40;99.90;;;;;;5006634;28;20037;-88
2022/02/20 14:36:45;;;;;;;10.70;6.18;;;17.40;99.90;;;;;;5003583;28;20032;-90
2022/02/20 14:39:17;;;;;;;7.35;5.50;;;18.50;99.90;;;;;;5021329;28;20176;-83
2022/02/20 14:41:43;;;;;;;7.55;6.13;;;19.60;99.90;;;;;;5021849;28;20036;-86
2022/02/20 14:44:09;;;;;;;10.38;5.95;;;19.80;99.90;;;;;;5022078;28;20030;-87
2022/02/20 14:46:34;;;;;;;8.82;6.75;;;19.90;99.90;;;;;;5001985;28;20029;-86
2022/02/20 14:49:01;;;;;;;8.07;6.47;;;19.80;99.90;;;;;;5021175;28;20030;-85
2022/02/20 14:51:29;;;;;;;6.88;6.18;;;19.70;99.90;;;;;;5045188;28;20051;-85
2022/02/20 14:53:57;;;;;;;7.90;6.68;;;19.80;99.90;;;;;;5044406;28;20073;-86
2022/02/20 14:56:26;;;;;;;10.88;7.00;;;19.70;99.90;;;;;;5043781;28;20025;-91
2022/02/20 14:58:58;;;;;;;9.15;6.60;;;19.70;99.90;;;;;;5044509;28;20018;-84
2022/02/20 15:01:27;;;;;;;10.02;7.80;;;19.20;99.90;;;;;;5044371;28;20079;-84
2022/02/20 15:04:32;;;;;;;12.90;7.40;;;18.50;99.90;;;;;;5025198;28;20056;-83
2022/02/20 15:07:32;;;;;;;;;;;;;;;;;;;;;
2022/02/20 15:10:01;;;;;;;10.82;7.60;;;17.20;99.90;;;;;;5046730;28;20044;-85
2022/02/20 15:12:27;;;;;;;14.77;7.65;;;17.80;99.90;;;;;;5042743;28;20040;-84
2022/02/20 15:15:05;;;;;;;7.32;6.43;;;17.90;99.90;;;;;;5039893;28;20033;-85
2022/02/20 15:17:54;;;;;;;10.55;7.07;;;17.50;99.90;;;;;;5042820;28;20057;-86
2022/02/20 15:20:20;;;;;;;10.85;7.45;;;16.80;99.90;;;;;;5025431;28;20044;-89
2022/02/20 15:22:53;;;;;;;12.25;7.80;;;15.80;99.90;;;;;;5049634;28;20102;-88
2022/02/20 15:28:17;;;;;;;17.63;8.93;;;15.00;99.90;;;;;;5050167;28;20036;-89
2022/02/20 15:30:54;;;;;;;12.70;8.13;;;15.10;99.90;;;;;;5044645;28;20025;-92
2022/02/20 15:33:21;;;;;;;11.45;8.15;;;15.60;99.90;;;;;;5025780;28;20107;-85
2022/02/20 15:36:10;;;;;;;12.85;9.27;;;15.90;99.90;;;;;;5020715;28;20452;-89
2022/02/20 15:38:42;;;;;;;15.93;8.93;;;15.50;99.90;;;;;;5015194;28;20419;-86
2022/02/20 15:41:12;;;;;;;11.10;9.15;;;14.90;99.90;;;;;;5044235;28;20037;-88
2022/02/20 15:43:39;;;;;;;12.25;9.93;;;14.40;99.90;;;;;;5045225;28;20025;-89
2022/02/20 15:46:08;;;;;;;14.60;9.65;;;14.30;99.90;;;;;;5028483;28;20040;-83
2022/02/20 15:48:36;;;;;;;12.88;9.90;;;14.40;99.90;;;;;;5045495;28;20029;-83
2022/02/20 15:51:23;;;;;;;12.57;9.93;;;14.40;99.90;;;;;;5041661;28;20052;-91
2022/02/20 15:53:55;;;;;;;15.77;9.13;;;14.50;99.90;;;;;;5052637;28;20094;-90
2022/02/20 15:56:39;;;;;;;14.63;11.05;;;14.50;99.90;;;;;;5056053;28;20035;-96
2022/02/20 15:59:08;;;;;;;14.07;10.13;;;14.40;99.90;;;;;;5040298;28;20044;-96
2022/02/20 16:01:41;;;;;;;12.05;10.20;;;14.40;99.90;;;;;;5033629;28;20083;-88
2022/02/20 16:04:07;;;;;;;12.35;10.23;;;14.00;99.90;;;;;;5044886;28;20036;-93
2022/02/20 16:07:00;;;;;;;15.13;10.55;;;13.70;99.90;;;;;;5041384;28;20041;-86
2022/02/20 16:09:29;;;;;;;;;;;13.50;99.90;;;;;;5028625;28;20083;-82
2022/02/20 16:12:02;;;;;;;11.98;10.02;;;13.00;99.90;;;;;;5045868;28;19908;-88
2022/02/20 16:14:28;;;;;;;12.80;9.95;;;12.60;99.90;;;;;;5035455;28;20041;-80
2022/02/20 16:16:54;;;;;;;15.05;8.40;;;12.30;99.90;;;;;;5026229;28;20106;-82
2022/02/20 16:19:20;;;;;;;12.57;8.93;;;12.00;99.90;;;;;;5044507;28;20033;-82
2022/02/20 16:22:17;;;;;;;13.75;9.57;;;11.70;99.90;;;;;;5034504;28;20021;-82
2022/02/20 16:24:43;;;;;;;10.65;9.55;;;11.50;99.90;;;;;;5037473;28;20505;-80
2022/02/20 16:27:09;;;;;;;11.48;9.65;;;11.30;99.90;;;;;;5043560;28;20109;-82
2022/02/20 16:29:49;;;;;;;11.13;9.90;;;11.10;99.90;;;;;;5044273;28;20025;-82
2022/02/20 16:32:20;;;;;;;12.98;9.30;;;11.00;99.90;;;;;;5037827;28;20048;-82
2022/02/20 16:35:08;;;;;;;;;;;;;;;;;;;;;
2022/02/20 16:37:37;;;;;;;11.88;9.63;;;10.70;99.90;;;;;;5038170;28;20018;-82
2022/02/20 16:40:17;;;;;;;11.05;9.95;;;10.50;99.90;;;;;;5036962;28;20086;-82
2022/02/20 16:42:43;;;;;;;11.55;10.38;;;10.40;99.90;;;;;;5039106;28;20022;-82
2022/02/20 16:45:10;;;;;;;14.68;11.57;;;10.30;99.90;;;;;;5045576;28;20034;-82
2022/02/20 16:47:35;;;;;;;15.55;11.50;;;10.30;99.90;;;;;;5039918;28;20060;-82
2022/02/20 16:50:02;;;;;;;13.27;11.38;;;10.30;99.90;;;;;;5043998;28;20057;-83
2022/02/20 16:52:27;;;;;;;13.90;11.68;;;10.30;99.90;;;;;;5037748;28;20033;-82
2022/02/20 16:54:53;;;;;;;12.73;11.27;;;10.30;99.90;;;;;;5044363;28;20060;-81
2022/02/20 16:57:22;;;;;;;16.58;12.88;;;10.30;99.90;;;;;;5037425;28;20036;-80
2022/02/20 16:59:47;;;;;;;12.48;11.18;;;10.30;99.90;;;;;;5043621;28;20037;-80
2022/02/20 17:02:14;;;;;;;16.30;12.73;;;10.20;99.90;;;;;;5043733;28;20029;-80
2022/02/20 17:04:39;;;;;;;19.92;14.15;;;10.00;99.90;;;;;;5036526;28;20030;-79
2022/02/20 17:07:05;;;;;;;18.90;14.30;;;9.90;99.90;;;;;;5042491;28;20538;-81
2022/02/20 17:09:32;;;;;;;16.80;13.27;;;9.80;99.90;;;;;;5043462;28;20033;-78
2022/02/20 17:11:57;;;;;;;13.52;12.13;;;9.70;99.90;;;;;;5043133;28;20494;-83
2022/02/20 17:14:23;;;;;;;14.63;11.57;;;9.60;99.90;;;;;;5043874;28;20072;-82
2022/02/20 17:16:52;;;;;;;11.30;9.63;;;9.60;99.90;;;;;;5042564;28;20029;-80
2022/02/20 17:19:18;;;;;;;10.68;9.18;;;9.60;99.90;;;;;;5043137;28;20047;-81
2022/02/20 17:21:44;;;;;;;12.13;8.27;;;9.50;99.90;;;;;;5042806;28;20021;-82
2022/02/20 17:24:10;;;;;;;15.50;8.73;;;9.50;99.90;;;;;;5042538;28;20128;-83
2022/02/20 17:26:36;;;;;;;16.95;8.75;;;9.40;99.90;;;;;;5043284;28;20025;-81
2022/02/20 17:29:08;;;;;;;11.25;8.75;;;9.40;99.90;;;;;;5041045;28;20048;-81
2022/02/20 17:31:35;;;;;;;9.27;8.05;;;9.30;99.90;;;;;;5043161;28;20025;-80
2022/02/20 17:34:05;;;;;;;8.23;7.45;;;9.20;99.90;;;;;;5040523;28;20037;-81
2022/02/20 17:36:32;;;;;;;9.20;8.05;;;9.20;99.90;;;;;;5044065;28;20025;-81
2022/02/20 17:39:01;;;;;;;13.00;9.65;;;9.10;99.90;;;;;;5041797;28;20086;-81
2022/02/20 17:41:27;;;;;;;11.57;8.73;;;9.10;99.90;;;;;;5041596;28;20025;-82
2022/02/20 17:43:53;;;;;;;11.43;9.07;;;9.00;99.90;;;;;;5041469;28;20021;-81
2022/02/20 17:46:22;;;;;;;14.98;10.25;;;9.00;99.90;;;;;;5042537;28;20037;-81
2022/02/20 17:48:48;;;;;;;12.73;11.45;;;9.00;99.90;;;;;;5040885;28;20029;-81
2022/02/20 17:51:14;;;;;;;14.88;11.15;;;9.00;99.90;;;;;;5041975;28;20049;-81
2022/02/20 17:53:40;;;;;;;14.93;13.20;;;9.00;99.90;;;;;;5041793;28;20033;-81
2022/02/20 17:56:15;;;;;;;9.25;7.72;;;8.90;99.90;;;;;;5022538;28;20028;-81
2022/02/20 17:58:43;;;;;;;15.07;12.57;;;9.00;99.90;;;;;;5039799;28;20083;-81
2022/02/20 18:01:12;;;;;;;13.48;10.93;;;8.90;99.90;;;;;;5041261;28;20112;-81
2022/02/20 18:03:42;;;;;;;7.82;7.03;;;8.90;99.90;;;;;;5021789;28;20036;-82
2022/02/20 18:06:17;;;;;;;9.30;5.53;;;8.80;99.90;;;;;;5021761;28;20124;-81
2022/02/20 18:08:42;;;;;;;7.32;6.22;;;8.80;99.90;;;;;;5039322;28;20025;-82
2022/02/20 18:11:09;;;;;;;10.15;7.15;;;8.80;99.90;;;;;;5022072;28;20084;-82
2022/02/20 18:13:42;;;;;;;10.30;8.50;;;8.80;99.90;;;;;;5039469;28;20034;-81
2022/02/20 18:16:13;;;;;;;15.25;12.35;;;8.70;99.90;;;;;;5040722;28;20079;-81